sensor_id;sensor_type;location;lat;lon;timestamp;temperature;humidity
2657;DHT22;1338;48.176;11.792;2023-03-01T00:01:18;1.50;1.00
2657;DHT22;1338;48.176;11.792;2023-03-01T00:03:47;1.70;1.00
2657;DHT22;1338;48.176;11.792;2023-03-01T00:06:17;1.60;1.00
2657;DHT22;1338;48.176;11.792;2023-03-01T00:08:45;1.30;1.00
2657;DHT22;1338;48.176;11.792;2023-03-01T00:11:15;1.40;1.00
2657;DHT22;1338;48.176;11.792;2023-03-01T00:13:45;1.70;1.00
2657;DHT22;1338;48.176;11.792;2023-03-01T00:16:15;1.30;1.00
2657;DHT22;1338;48.176;11.792;2023-03-01T00:18:44;1.40;1.00
2657;DHT22;1338;48.176;11.792;2023-03-01T00:21:12;1.20;1.00
2657;DHT22;1338;48.176;11.792;2023-03-01T00:23:41;1.30;1.00
2657;DHT22;1338;48.176;11.792;2023-03-01T00:26:11;1.00;1.00
2657;DHT22;1338;48.176;11.792;2023-03-01T00:28:41;1.30;1.00
2657;DHT22;1338;48.176;11.792;2023-03-01T00:31:11;1.80;1.00
2657;DHT22;1338;48.176;11.792;2023-03-01T00:33:40;1.50;1.00
2657;DHT22;1338;48.176;11.792;2023-03-01T00:36:09;1.20;1.00
2657;DHT22;1338;48.176;11.792;2023-03-01T00:38:38;1.70;1.00
2657;DHT22;1338;48.176;11.792;2023-03-01T00:41:09;1.70;1.00
2657;DHT22;1338;48.176;11.792;2023-03-01T00:43:38;1.60;1.00
2657;DHT22;1338;48.176;11.792;2023-03-01T00:46:09;1.30;1.00
2657;DHT22;1338;48.176;11.792;2023-03-01T00:48:37;1.90;1.00
2657;DHT22;1338;48.176;11.792;2023-03-01T00:51:07;1.50;1.00
2657;DHT22;1338;48.176;11.792;2023-03-01T00:53:35;1.50;1.00
2657;DHT22;1338;48.176;11.792;2023-03-01T00:56:05;1.10;1.00
2657;DHT22;1338;48.176;11.792;2023-03-01T00:58:35;1.20;1.00
2657;DHT22;1338;48.176;11.792;2023-03-01T01:01:07;1.30;1.00
2657;DHT22;1338;48.176;11.792;2023-03-01T01:03:46;1.10;1.00
2657;DHT22;1338;48.176;11.792;2023-03-01T01:06:20;1.40;1.00
2657;DHT22;1338;48.176;11.792;2023-03-01T01:08:49;1.30;1.00
2657;DHT22;1338;48.176;11.792;2023-03-01T01:11:17;1.50;1.00
2657;DHT22;1338;48.176;11.792;2023-03-01T01:13:47;1.50;1.00
2657;DHT22;1338;48.176;11.792;2023-03-01T01:16:16;1.60;1.00
2657;DHT22;1338;48.176;11.792;2023-03-01T01:18:45;1.10;1.00
2657;DHT22;1338;48.176;11.792;2023-03-01T01:21:16;1.40;1.00
2657;DHT22;1338;48.176;11.792;2023-03-01T01:23:45;1.20;1.00
2657;DHT22;1338;48.176;11.792;2023-03-01T01:26:16;1.40;1.00
2657;DHT22;1338;48.176;11.792;2023-03-01T01:28:45;1.30;1.00
2657;DHT22;1338;48.176;11.792;2023-03-01T01:31:15;1.40;1.00
2657;DHT22;1338;48.176;11.792;2023-03-01T01:33:43;1.10;1.00
2657;DHT22;1338;48.176;11.792;2023-03-01T01:36:12;1.10;1.00
2657;DHT22;1338;48.176;11.792;2023-03-01T01:38:40;1.20;1.00
2657;DHT22;1338;48.176;11.792;2023-03-01T01:41:11;1.30;1.00
2657;DHT22;1338;48.176;11.792;2023-03-01T01:43:41;1.40;1.00
2657;DHT22;1338;48.176;11.792;2023-03-01T01:46:19;1.50;1.00
2657;DHT22;1338;48.176;11.792;2023-03-01T01:48:53;1.50;1.00
2657;DHT22;1338;48.176;11.792;2023-03-01T01:51:25;1.50;1.00
2657;DHT22;1338;48.176;11.792;2023-03-01T01:53:58;1.10;1.00
2657;DHT22;1338;48.176;11.792;2023-03-01T01:56:29;1.40;1.00
2657;DHT22;1338;48.176;11.792;2023-03-01T01:58:58;1.00;1.00
2657;DHT22;1338;48.176;11.792;2023-03-01T02:01:28;1.10;1.00
2657;DHT22;1338;48.176;11.792;2023-03-01T02:03:56;1.20;1.00
2657;DHT22;1338;48.176;11.792;2023-03-01T02:06:28;1.30;1.00
2657;DHT22;1338;48.176;11.792;2023-03-01T02:09:00;1.50;1.00
2657;DHT22;1338;48.176;11.792;2023-03-01T02:11:30;1.40;1.00
2657;DHT22;1338;48.176;11.792;2023-03-01T02:13:58;1.10;1.00
2657;DHT22;1338;48.176;11.792;2023-03-01T02:16:28;1.40;1.00
2657;DHT22;1338;48.176;11.792;2023-03-01T02:18:58;1.50;1.00
2657;DHT22;1338;48.176;11.792;2023-03-01T02:21:37;1.40;1.00
2657;DHT22;1338;48.176;11.792;2023-03-01T02:24:13;1.00;1.00
2657;DHT22;1338;48.176;11.792;2023-03-01T02:26:51;1.20;1.00
2657;DHT22;1338;48.176;11.792;2023-03-01T02:29:22;1.40;1.00
2657;DHT22;1338;48.176;11.792;2023-03-01T02:31:52;1.20;1.00
2657;DHT22;1338;48.176;11.792;2023-03-01T02:34:25;1.50;1.00
2657;DHT22;1338;48.176;11.792;2023-03-01T02:36:57;1.20;1.00
2657;DHT22;1338;48.176;11.792;2023-03-01T02:39:28;1.30;1.00
2657;DHT22;1338;48.176;11.792;2023-03-01T02:41:59;1.20;1.00
2657;DHT22;1338;48.176;11.792;2023-03-01T02:44:28;1.00;1.00
2657;DHT22;1338;48.176;11.792;2023-03-01T02:46:59;1.00;1.00
2657;DHT22;1338;48.176;11.792;2023-03-01T02:49:31;1.10;1.00
2657;DHT22;1338;48.176;11.792;2023-03-01T02:52:16;0.80;1.00
2657;DHT22;1338;48.176;11.792;2023-03-01T02:54:52;1.30;1.00
2657;DHT22;1338;48.176;11.792;2023-03-01T02:57:23;1.30;1.00
2657;DHT22;1338;48.176;11.792;2023-03-01T02:59:57;0.90;1.00
2657;DHT22;1338;48.176;11.792;2023-03-01T03:02:29;1.00;1.00
2657;DHT22;1338;48.176;11.792;2023-03-01T03:05:12;1.10;1.00
2657;DHT22;1338;48.176;11.792;2023-03-01T03:07:42;1.00;1.00
2657;DHT22;1338;48.176;11.792;2023-03-01T03:10:12;1.10;1.00
2657;DHT22;1338;48.176;11.792;2023-03-01T03:12:41;0.80;1.00
2657;DHT22;1338;48.176;11.792;2023-03-01T03:15:11;1.00;1.00
2657;DHT22;1338;48.176;11.792;2023-03-01T03:17:41;1.00;1.00
2657;DHT22;1338;48.176;11.792;2023-03-01T03:20:14;1.30;1.00
2657;DHT22;1338;48.176;11.792;2023-03-01T03:22:47;1.00;1.00
2657;DHT22;1338;48.176;11.792;2023-03-01T03:25:16;1.10;1.00
2657;DHT22;1338;48.176;11.792;2023-03-01T03:27:46;0.60;1.00
2657;DHT22;1338;48.176;11.792;2023-03-01T03:30:18;0.90;1.00
2657;DHT22;1338;48.176;11.792;2023-03-01T03:32:48;1.10;1.00
2657;DHT22;1338;48.176;11.792;2023-03-01T03:35:21;0.60;1.00
2657;DHT22;1338;48.176;11.792;2023-03-01T03:37:49;1.00;1.00
2657;DHT22;1338;48.176;11.792;2023-03-01T03:40:35;0.90;1.00
2657;DHT22;1338;48.176;11.792;2023-03-01T03:43:05;0.80;1.00
2657;DHT22;1338;48.176;11.792;2023-03-01T03:45:35;0.80;1.00
2657;DHT22;1338;48.176;11.792;2023-03-01T03:48:05;0.90;1.00
2657;DHT22;1338;48.176;11.792;2023-03-01T03:50:34;1.10;1.00
2657;DHT22;1338;48.176;11.792;2023-03-01T03:53:04;0.50;1.00
2657;DHT22;1338;48.176;11.792;2023-03-01T03:55:33;0.40;1.00
2657;DHT22;1338;48.176;11.792;2023-03-01T03:58:02;0.50;1.00
2657;DHT22;1338;48.176;11.792;2023-03-01T04:00:36;0.60;1.00
2657;DHT22;1338;48.176;11.792;2023-03-01T04:03:05;0.90;1.00
2657;DHT22;1338;48.176;11.792;2023-03-01T04:05:33;0.80;1.00
2657;DHT22;1338;48.176;11.792;2023-03-01T04:08:02;0.90;1.00
2657;DHT22;1338;48.176;11.792;2023-03-01T04:10:31;1.00;1.00
2657;DHT22;1338;48.176;11.792;2023-03-01T04:13:00;1.00;1.00
2657;DHT22;1338;48.176;11.792;2023-03-01T04:15:28;1.00;1.00
2657;DHT22;1338;48.176;11.792;2023-03-01T04:17:58;0.90;1.00
2657;DHT22;1338;48.176;11.792;2023-03-01T04:20:28;0.80;1.00
2657;DHT22;1338;48.176;11.792;2023-03-01T04:22:58;0.90;1.00
2657;DHT22;1338;48.176;11.792;2023-03-01T04:25:26;0.50;1.00
2657;DHT22;1338;48.176;11.792;2023-03-01T04:27:57;0.20;1.00
2657;DHT22;1338;48.176;11.792;2023-03-01T04:30:25;0.80;1.00
2657;DHT22;1338;48.176;11.792;2023-03-01T04:32:53;0.40;1.00
2657;DHT22;1338;48.176;11.792;2023-03-01T04:35:22;0.20;1.00
2657;DHT22;1338;48.176;11.792;2023-03-01T04:37:50;0.40;1.00
2657;DHT22;1338;48.176;11.792;2023-03-01T04:40:19;0.20;1.00
2657;DHT22;1338;48.176;11.792;2023-03-01T04:42:48;0.10;1.00
2657;DHT22;1338;48.176;11.792;2023-03-01T04:45:16;0.40;1.00
2657;DHT22;1338;48.176;11.792;2023-03-01T04:47:45;0.10;1.00
2657;DHT22;1338;48.176;11.792;2023-03-01T04:50:16;0.10;1.00
2657;DHT22;1338;48.176;11.792;2023-03-01T04:52:48;0.10;1.00
2657;DHT22;1338;48.176;11.792;2023-03-01T04:55:16;0.20;1.00
2657;DHT22;1338;48.176;11.792;2023-03-01T04:57:45;-0.30;1.00
2657;DHT22;1338;48.176;11.792;2023-03-01T05:00:14;0.30;1.00
2657;DHT22;1338;48.176;11.792;2023-03-01T05:02:49;-0.20;1.00
2657;DHT22;1338;48.176;11.792;2023-03-01T05:05:21;0.20;1.00
2657;DHT22;1338;48.176;11.792;2023-03-01T05:07:55;-0.30;1.00
2657;DHT22;1338;48.176;11.792;2023-03-01T05:10:24;-0.40;1.00
2657;DHT22;1338;48.176;11.792;2023-03-01T05:12:53;-0.10;1.00
2657;DHT22;1338;48.176;11.792;2023-03-01T05:15:21;0.10;1.00
2657;DHT22;1338;48.176;11.792;2023-03-01T05:17:52;-0.30;1.00
2657;DHT22;1338;48.176;11.792;2023-03-01T05:20:22;-0.20;1.00
2657;DHT22;1338;48.176;11.792;2023-03-01T05:22:51;0.00;1.00
2657;DHT22;1338;48.176;11.792;2023-03-01T05:25:20;-0.40;1.00
2657;DHT22;1338;48.176;11.792;2023-03-01T05:27:49;0.30;1.00
2657;DHT22;1338;48.176;11.792;2023-03-01T05:30:18;-0.10;1.00
2657;DHT22;1338;48.176;11.792;2023-03-01T05:32:48;-0.20;1.00
2657;DHT22;1338;48.176;11.792;2023-03-01T05:35:17;0.20;1.00
2657;DHT22;1338;48.176;11.792;2023-03-01T05:37:47;-0.10;1.00
2657;DHT22;1338;48.176;11.792;2023-03-01T05:40:17;-0.50;1.00
2657;DHT22;1338;48.176;11.792;2023-03-01T05:42:48;0.10;1.00
2657;DHT22;1338;48.176;11.792;2023-03-01T05:45:17;0.00;1.00
2657;DHT22;1338;48.176;11.792;2023-03-01T05:47:47;-0.10;1.00
2657;DHT22;1338;48.176;11.792;2023-03-01T05:50:18;-0.50;1.00
2657;DHT22;1338;48.176;11.792;2023-03-01T05:52:47;0.10;1.00
2657;DHT22;1338;48.176;11.792;2023-03-01T05:55:17;-0.40;1.00
2657;DHT22;1338;48.176;11.792;2023-03-01T05:57:47;0.20;1.00
2657;DHT22;1338;48.176;11.792;2023-03-01T06:00:19;0.20;1.00
2657;DHT22;1338;48.176;11.792;2023-03-01T06:02:49;0.30;1.00
2657;DHT22;1338;48.176;11.792;2023-03-01T06:05:17;0.30;1.00
2657;DHT22;1338;48.176;11.792;2023-03-01T06:07:45;0.30;1.00
2657;DHT22;1338;48.176;11.792;2023-03-01T06:10:14;0.20;1.00
2657;DHT22;1338;48.176;11.792;2023-03-01T06:12:43;-0.30;1.00
2657;DHT22;1338;48.176;11.792;2023-03-01T06:15:14;0.10;1.00
2657;DHT22;1338;48.176;11.792;2023-03-01T06:17:44;0.30;1.00
2657;DHT22;1338;48.176;11.792;2023-03-01T06:20:14;0.20;1.00
2657;DHT22;1338;48.176;11.792;2023-03-01T06:22:48;-0.10;1.00
2657;DHT22;1338;48.176;11.792;2023-03-01T06:25:18;0.20;1.00
2657;DHT22;1338;48.176;11.792;2023-03-01T06:27:48;0.20;1.00
2657;DHT22;1338;48.176;11.792;2023-03-01T06:30:19;-0.10;1.00
2657;DHT22;1338;48.176;11.792;2023-03-01T06:32:48;-0.40;1.00
2657;DHT22;1338;48.176;11.792;2023-03-01T06:35:17;0.20;1.00
2657;DHT22;1338;48.176;11.792;2023-03-01T06:37:47;0.10;1.00
2657;DHT22;1338;48.176;11.792;2023-03-01T06:40:15;0.20;1.00
2657;DHT22;1338;48.176;11.792;2023-03-01T06:42:49;0.30;1.00
2657;DHT22;1338;48.176;11.792;2023-03-01T06:45:20;0.50;1.00
2657;DHT22;1338;48.176;11.792;2023-03-01T06:47:48;0.20;1.00
2657;DHT22;1338;48.176;11.792;2023-03-01T06:50:20;0.40;1.00
2657;DHT22;1338;48.176;11.792;2023-03-01T06:52:48;0.10;1.00
2657;DHT22;1338;48.176;11.792;2023-03-01T06:55:23;0.20;1.00
2657;DHT22;1338;48.176;11.792;2023-03-01T06:57:54;0.10;1.00
2657;DHT22;1338;48.176;11.792;2023-03-01T07:00:25;0.40;1.00
2657;DHT22;1338;48.176;11.792;2023-03-01T07:02:54;0.40;1.00
2657;DHT22;1338;48.176;11.792;2023-03-01T07:05:22;0.40;1.00
2657;DHT22;1338;48.176;11.792;2023-03-01T07:07:50;0.10;1.00
2657;DHT22;1338;48.176;11.792;2023-03-01T07:10:19;0.10;1.00
2657;DHT22;1338;48.176;11.792;2023-03-01T07:12:47;0.10;1.00
2657;DHT22;1338;48.176;11.792;2023-03-01T07:15:16;0.10;1.00
2657;DHT22;1338;48.176;11.792;2023-03-01T07:17:46;0.20;1.00
2657;DHT22;1338;48.176;11.792;2023-03-01T07:20:19;0.00;1.00
2657;DHT22;1338;48.176;11.792;2023-03-01T07:22:52;-0.10;1.00
2657;DHT22;1338;48.176;11.792;2023-03-01T07:25:20;0.10;1.00
2657;DHT22;1338;48.176;11.792;2023-03-01T07:27:50;0.10;1.00
2657;DHT22;1338;48.176;11.792;2023-03-01T07:30:19;-0.10;1.00
2657;DHT22;1338;48.176;11.792;2023-03-01T07:32:49;0.30;1.00
2657;DHT22;1338;48.176;11.792;2023-03-01T07:35:21;0.30;1.00
2657;DHT22;1338;48.176;11.792;2023-03-01T07:37:50;0.10;1.00
2657;DHT22;1338;48.176;11.792;2023-03-01T07:40:18;0.30;1.00
2657;DHT22;1338;48.176;11.792;2023-03-01T07:42:47;0.30;1.00
2657;DHT22;1338;48.176;11.792;2023-03-01T07:45:15;0.30;1.00
2657;DHT22;1338;48.176;11.792;2023-03-01T07:47:44;0.50;1.00
2657;DHT22;1338;48.176;11.792;2023-03-01T07:50:14;0.50;1.00
2657;DHT22;1338;48.176;11.792;2023-03-01T07:52:44;0.40;1.00
2657;DHT22;1338;48.176;11.792;2023-03-01T07:55:13;0.40;1.00
2657;DHT22;1338;48.176;11.792;2023-03-01T07:57:42;0.40;1.00
2657;DHT22;1338;48.176;11.792;2023-03-01T08:00:12;0.50;1.00
2657;DHT22;1338;48.176;11.792;2023-03-01T08:02:41;0.40;1.00
2657;DHT22;1338;48.176;11.792;2023-03-01T08:05:10;0.60;1.00
2657;DHT22;1338;48.176;11.792;2023-03-01T08:07:39;0.70;1.00
2657;DHT22;1338;48.176;11.792;2023-03-01T08:10:08;0.40;1.00
2657;DHT22;1338;48.176;11.792;2023-03-01T08:12:37;0.60;1.00
2657;DHT22;1338;48.176;11.792;2023-03-01T08:15:08;0.40;1.00
2657;DHT22;1338;48.176;11.792;2023-03-01T08:17:36;0.40;1.00
2657;DHT22;1338;48.176;11.792;2023-03-01T08:20:05;0.60;1.00
2657;DHT22;1338;48.176;11.792;2023-03-01T08:22:34;0.60;1.00
2657;DHT22;1338;48.176;11.792;2023-03-01T08:25:03;0.70;1.00
2657;DHT22;1338;48.176;11.792;2023-03-01T08:27:32;0.70;1.00
2657;DHT22;1338;48.176;11.792;2023-03-01T08:30:00;0.80;1.00
2657;DHT22;1338;48.176;11.792;2023-03-01T08:32:28;0.70;1.00
2657;DHT22;1338;48.176;11.792;2023-03-01T08:34:56;0.80;1.00
2657;DHT22;1338;48.176;11.792;2023-03-01T08:37:25;1.00;1.00
2657;DHT22;1338;48.176;11.792;2023-03-01T08:39:54;0.70;1.00
2657;DHT22;1338;48.176;11.792;2023-03-01T08:42:24;0.80;1.00
2657;DHT22;1338;48.176;11.792;2023-03-01T08:44:52;0.70;1.00
2657;DHT22;1338;48.176;11.792;2023-03-01T08:47:20;0.80;1.00
2657;DHT22;1338;48.176;11.792;2023-03-01T08:49:49;1.10;1.00
2657;DHT22;1338;48.176;11.792;2023-03-01T08:52:18;1.10;1.00
2657;DHT22;1338;48.176;11.792;2023-03-01T08:54:47;1.10;1.00
2657;DHT22;1338;48.176;11.792;2023-03-01T08:57:16;1.20;1.00
2657;DHT22;1338;48.176;11.792;2023-03-01T08:59:45;1.30;1.00
2657;DHT22;1338;48.176;11.792;2023-03-01T09:02:14;1.10;1.00
2657;DHT22;1338;48.176;11.792;2023-03-01T09:04:43;1.10;1.00
2657;DHT22;1338;48.176;11.792;2023-03-01T09:07:12;1.20;1.00
2657;DHT22;1338;48.176;11.792;2023-03-01T09:09:41;1.40;1.00
2657;DHT22;1338;48.176;11.792;2023-03-01T09:12:09;1.40;1.00
2657;DHT22;1338;48.176;11.792;2023-03-01T09:14:37;1.70;1.00
2657;DHT22;1338;48.176;11.792;2023-03-01T09:17:09;1.60;1.00
2657;DHT22;1338;48.176;11.792;2023-03-01T09:19:38;1.30;1.00
2657;DHT22;1338;48.176;11.792;2023-03-01T09:22:06;1.40;1.00
2657;DHT22;1338;48.176;11.792;2023-03-01T09:24:34;1.50;1.00
2657;DHT22;1338;48.176;11.792;2023-03-01T09:27:02;1.60;1.00
2657;DHT22;1338;48.176;11.792;2023-03-01T09:29:32;1.60;1.00
2657;DHT22;1338;48.176;11.792;2023-03-01T09:32:00;1.50;1.00
2657;DHT22;1338;48.176;11.792;2023-03-01T09:34:29;1.50;1.00
2657;DHT22;1338;48.176;11.792;2023-03-01T09:36:58;1.60;1.00
2657;DHT22;1338;48.176;11.792;2023-03-01T09:39:29;1.80;1.00
2657;DHT22;1338;48.176;11.792;2023-03-01T09:42:01;1.90;1.00
2657;DHT22;1338;48.176;11.792;2023-03-01T09:44:35;1.80;1.00
2657;DHT22;1338;48.176;11.792;2023-03-01T09:47:05;2.00;1.00
2657;DHT22;1338;48.176;11.792;2023-03-01T09:49:41;2.10;1.00
2657;DHT22;1338;48.176;11.792;2023-03-01T09:52:23;2.00;1.00
2657;DHT22;1338;48.176;11.792;2023-03-01T09:54:54;2.00;1.00
2657;DHT22;1338;48.176;11.792;2023-03-01T09:57:30;2.10;1.00
2657;DHT22;1338;48.176;11.792;2023-03-01T10:00:13;2.20;1.00
2657;DHT22;1338;48.176;11.792;2023-03-01T10:02:46;2.40;1.00
2657;DHT22;1338;48.176;11.792;2023-03-01T10:05:33;2.10;1.00
2657;DHT22;1338;48.176;11.792;2023-03-01T10:08:20;2.20;1.00
2657;DHT22;1338;48.176;11.792;2023-03-01T10:10:52;2.40;1.00
2657;DHT22;1338;48.176;11.792;2023-03-01T10:13:25;2.50;1.00
2657;DHT22;1338;48.176;11.792;2023-03-01T10:15:57;2.90;1.00
2657;DHT22;1338;48.176;11.792;2023-03-01T10:18:28;2.80;1.00
2657;DHT22;1338;48.176;11.792;2023-03-01T10:21:00;3.00;1.00
2657;DHT22;1338;48.176;11.792;2023-03-01T10:23:32;3.20;1.00
2657;DHT22;1338;48.176;11.792;2023-03-01T10:26:15;3.50;1.00
2657;DHT22;1338;48.176;11.792;2023-03-01T10:28:54;3.50;1.00
2657;DHT22;1338;48.176;11.792;2023-03-01T10:31:24;3.40;1.00
2657;DHT22;1338;48.176;11.792;2023-03-01T10:33:56;3.50;1.00
2657;DHT22;1338;48.176;11.792;2023-03-01T10:36:27;3.50;1.00
2657;DHT22;1338;48.176;11.792;2023-03-01T10:38:57;3.20;1.00
2657;DHT22;1338;48.176;11.792;2023-03-01T10:41:26;3.10;1.00
2657;DHT22;1338;48.176;11.792;2023-03-01T10:43:56;3.30;1.00
2657;DHT22;1338;48.176;11.792;2023-03-01T10:46:28;3.60;1.00
2657;DHT22;1338;48.176;11.792;2023-03-01T10:49:13;3.60;1.00
2657;DHT22;1338;48.176;11.792;2023-03-01T10:51:46;3.60;1.00
2657;DHT22;1338;48.176;11.792;2023-03-01T10:54:20;3.50;1.00
2657;DHT22;1338;48.176;11.792;2023-03-01T10:56:51;3.50;1.00
2657;DHT22;1338;48.176;11.792;2023-03-01T10:59:26;4.20;1.00
2657;DHT22;1338;48.176;11.792;2023-03-01T11:02:04;4.00;1.00
2657;DHT22;1338;48.176;11.792;2023-03-01T11:05:01;3.90;1.00
2657;DHT22;1338;48.176;11.792;2023-03-01T11:07:46;3.90;1.00
2657;DHT22;1338;48.176;11.792;2023-03-01T11:10:18;3.60;1.00
2657;DHT22;1338;48.176;11.792;2023-03-01T11:12:46;4.00;1.00
2657;DHT22;1338;48.176;11.792;2023-03-01T11:15:26;4.30;1.00
2657;DHT22;1338;48.176;11.792;2023-03-01T11:17:56;4.40;1.00
2657;DHT22;1338;48.176;11.792;2023-03-01T11:20:39;4.30;1.00
2657;DHT22;1338;48.176;11.792;2023-03-01T11:23:11;3.90;1.00
2657;DHT22;1338;48.176;11.792;2023-03-01T11:25:42;4.30;1.00
2657;DHT22;1338;48.176;11.792;2023-03-01T11:28:15;4.30;1.00
2657;DHT22;1338;48.176;11.792;2023-03-01T11:30:49;4.30;1.00
2657;DHT22;1338;48.176;11.792;2023-03-01T11:33:39;4.50;1.00
2657;DHT22;1338;48.176;11.792;2023-03-01T11:36:16;4.90;1.00
2657;DHT22;1338;48.176;11.792;2023-03-01T11:38:46;5.00;1.00
2657;DHT22;1338;48.176;11.792;2023-03-01T11:41:17;5.10;1.00
2657;DHT22;1338;48.176;11.792;2023-03-01T11:43:50;5.30;1.00
2657;DHT22;1338;48.176;11.792;2023-03-01T11:46:36;5.50;1.00
2657;DHT22;1338;48.176;11.792;2023-03-01T11:52:25;5.40;1.00
2657;DHT22;1338;48.176;11.792;2023-03-01T11:55:20;5.40;1.00
2657;DHT22;1338;48.176;11.792;2023-03-01T11:58:05;5.30;1.00
2657;DHT22;1338;48.176;11.792;2023-03-01T12:01:14;5.40;1.00
2657;DHT22;1338;48.176;11.792;2023-03-01T12:04:00;5.30;1.00
2657;DHT22;1338;48.176;11.792;2023-03-01T12:06:38;5.80;1.00
2657;DHT22;1338;48.176;11.792;2023-03-01T12:09:21;6.00;1.00
2657;DHT22;1338;48.176;11.792;2023-03-01T12:12:03;5.50;1.00
2657;DHT22;1338;48.176;11.792;2023-03-01T12:14:52;5.50;1.00
2657;DHT22;1338;48.176;11.792;2023-03-01T12:17:40;6.20;1.00
2657;DHT22;1338;48.176;11.792;2023-03-01T12:20:21;5.80;1.00
2657;DHT22;1338;48.176;11.792;2023-03-01T12:23:12;6.00;1.00
2657;DHT22;1338;48.176;11.792;2023-03-01T12:25:49;6.20;1.00
2657;DHT22;1338;48.176;11.792;2023-03-01T12:31:49;6.30;1.00
2657;DHT22;1338;48.176;11.792;2023-03-01T12:34:53;6.00;1.00
2657;DHT22;1338;48.176;11.792;2023-03-01T12:37:35;6.40;1.00
2657;DHT22;1338;48.176;11.792;2023-03-01T12:40:40;6.90;1.00
2657;DHT22;1338;48.176;11.792;2023-03-01T12:43:25;7.20;1.00
2657;DHT22;1338;48.176;11.792;2023-03-01T12:46:07;8.10;1.00
2657;DHT22;1338;48.176;11.792;2023-03-01T12:48:46;7.90;1.00
2657;DHT22;1338;48.176;11.792;2023-03-01T12:51:22;6.80;1.00
2657;DHT22;1338;48.176;11.792;2023-03-01T12:53:53;7.40;1.00
2657;DHT22;1338;48.176;11.792;2023-03-01T12:56:25;6.50;1.00
2657;DHT22;1338;48.176;11.792;2023-03-01T12:59:00;8.10;1.00
2657;DHT22;1338;48.176;11.792;2023-03-01T13:01:39;7.30;1.00
2657;DHT22;1338;48.176;11.792;2023-03-01T13:04:20;7.10;1.00
2657;DHT22;1338;48.176;11.792;2023-03-01T13:06:58;8.40;1.00
2657;DHT22;1338;48.176;11.792;2023-03-01T13:09:35;8.10;1.00
2657;DHT22;1338;48.176;11.792;2023-03-01T13:12:14;6.80;1.00
2657;DHT22;1338;48.176;11.792;2023-03-01T13:15:00;7.30;1.00
2657;DHT22;1338;48.176;11.792;2023-03-01T13:17:33;7.80;1.00
2657;DHT22;1338;48.176;11.792;2023-03-01T13:20:01;7.60;1.00
2657;DHT22;1338;48.176;11.792;2023-03-01T13:22:32;7.50;1.00
2657;DHT22;1338;48.176;11.792;2023-03-01T13:25:15;7.40;1.00
2657;DHT22;1338;48.176;11.792;2023-03-01T13:27:47;7.60;1.00
2657;DHT22;1338;48.176;11.792;2023-03-01T13:30:40;8.20;1.00
2657;DHT22;1338;48.176;11.792;2023-03-01T13:33:37;9.50;1.00
2657;DHT22;1338;48.176;11.792;2023-03-01T13:36:09;8.10;1.00
2657;DHT22;1338;48.176;11.792;2023-03-01T13:38:46;8.80;1.00
2657;DHT22;1338;48.176;11.792;2023-03-01T13:41:16;8.00;1.00
2657;DHT22;1338;48.176;11.792;2023-03-01T13:43:46;8.10;1.00
2657;DHT22;1338;48.176;11.792;2023-03-01T13:46:20;9.10;1.00
2657;DHT22;1338;48.176;11.792;2023-03-01T13:48:53;8.40;1.00
2657;DHT22;1338;48.176;11.792;2023-03-01T13:51:25;8.20;1.00
2657;DHT22;1338;48.176;11.792;2023-03-01T13:53:56;8.90;1.00
2657;DHT22;1338;48.176;11.792;2023-03-01T13:56:29;8.20;1.00
2657;DHT22;1338;48.176;11.792;2023-03-01T13:59:04;8.30;1.00
2657;DHT22;1338;48.176;11.792;2023-03-01T14:01:35;8.00;1.00
2657;DHT22;1338;48.176;11.792;2023-03-01T14:04:20;8.50;1.00
2657;DHT22;1338;48.176;11.792;2023-03-01T14:06:48;8.10;1.00
2657;DHT22;1338;48.176;11.792;2023-03-01T14:09:20;8.90;1.00
2657;DHT22;1338;48.176;11.792;2023-03-01T14:12:06;8.70;1.00
2657;DHT22;1338;48.176;11.792;2023-03-01T14:14:48;8.50;1.00
2657;DHT22;1338;48.176;11.792;2023-03-01T14:20:23;9.10;1.00
2657;DHT22;1338;48.176;11.792;2023-03-01T14:22:54;9.00;1.00
2657;DHT22;1338;48.176;11.792;2023-03-01T14:25:26;8.80;1.00
2657;DHT22;1338;48.176;11.792;2023-03-01T14:27:57;9.10;1.00
2657;DHT22;1338;48.176;11.792;2023-03-01T14:30:27;9.40;1.00
2657;DHT22;1338;48.176;11.792;2023-03-01T14:32:59;8.70;1.00
2657;DHT22;1338;48.176;11.792;2023-03-01T14:35:31;10.00;1.00
2657;DHT22;1338;48.176;11.792;2023-03-01T14:38:01;9.10;1.00
2657;DHT22;1338;48.176;11.792;2023-03-01T14:40:31;9.30;1.00
2657;DHT22;1338;48.176;11.792;2023-03-01T14:43:00;9.10;1.00
2657;DHT22;1338;48.176;11.792;2023-03-01T14:45:30;9.80;1.00
2657;DHT22;1338;48.176;11.792;2023-03-01T14:48:00;10.00;1.00
2657;DHT22;1338;48.176;11.792;2023-03-01T14:50:35;10.20;1.00
2657;DHT22;1338;48.176;11.792;2023-03-01T14:53:05;8.80;1.00
2657;DHT22;1338;48.176;11.792;2023-03-01T14:55:37;8.80;1.00
2657;DHT22;1338;48.176;11.792;2023-03-01T14:58:12;9.50;1.00
2657;DHT22;1338;48.176;11.792;2023-03-01T15:00:48;9.40;1.00
2657;DHT22;1338;48.176;11.792;2023-03-01T15:03:26;9.10;1.00
2657;DHT22;1338;48.176;11.792;2023-03-01T15:05:56;8.80;1.00
2657;DHT22;1338;48.176;11.792;2023-03-01T15:08:25;9.80;1.00
2657;DHT22;1338;48.176;11.792;2023-03-01T15:11:05;9.70;1.00
2657;DHT22;1338;48.176;11.792;2023-03-01T15:13:35;9.80;1.00
2657;DHT22;1338;48.176;11.792;2023-03-01T15:16:09;9.90;1.00
2657;DHT22;1338;48.176;11.792;2023-03-01T15:18:43;9.00;1.00
2657;DHT22;1338;48.176;11.792;2023-03-01T15:21:20;9.50;1.00
2657;DHT22;1338;48.176;11.792;2023-03-01T15:23:51;9.70;1.00
2657;DHT22;1338;48.176;11.792;2023-03-01T15:26:23;9.10;1.00
2657;DHT22;1338;48.176;11.792;2023-03-01T15:28:55;9.30;1.00
2657;DHT22;1338;48.176;11.792;2023-03-01T15:31:27;9.30;1.00
2657;DHT22;1338;48.176;11.792;2023-03-01T15:34:09;9.30;1.00
2657;DHT22;1338;48.176;11.792;2023-03-01T15:36:42;10.00;1.00
2657;DHT22;1338;48.176;11.792;2023-03-01T15:39:37;9.40;1.00
2657;DHT22;1338;48.176;11.792;2023-03-01T15:42:07;9.40;1.00
2657;DHT22;1338;48.176;11.792;2023-03-01T15:44:38;9.20;1.00
2657;DHT22;1338;48.176;11.792;2023-03-01T15:47:23;8.70;1.00
2657;DHT22;1338;48.176;11.792;2023-03-01T15:49:53;8.90;1.00
2657;DHT22;1338;48.176;11.792;2023-03-01T15:52:25;8.80;1.00
2657;DHT22;1338;48.176;11.792;2023-03-01T15:54:58;9.30;1.00
2657;DHT22;1338;48.176;11.792;2023-03-01T15:57:27;9.50;1.00
2657;DHT22;1338;48.176;11.792;2023-03-01T15:59:55;9.80;1.00
2657;DHT22;1338;48.176;11.792;2023-03-01T16:02:24;9.60;1.00
2657;DHT22;1338;48.176;11.792;2023-03-01T16:04:52;9.90;1.00
2657;DHT22;1338;48.176;11.792;2023-03-01T16:07:24;9.40;1.00
2657;DHT22;1338;48.176;11.792;2023-03-01T16:09:54;9.70;1.00
2657;DHT22;1338;48.176;11.792;2023-03-01T16:12:23;9.30;1.00
2657;DHT22;1338;48.176;11.792;2023-03-01T16:14:51;9.10;1.00
2657;DHT22;1338;48.176;11.792;2023-03-01T16:17:21;9.30;1.00
2657;DHT22;1338;48.176;11.792;2023-03-01T16:19:49;9.00;1.00
2657;DHT22;1338;48.176;11.792;2023-03-01T16:22:17;8.40;1.00
2657;DHT22;1338;48.176;11.792;2023-03-01T16:24:52;8.50;1.00
2657;DHT22;1338;48.176;11.792;2023-03-01T16:27:21;8.40;1.00
2657;DHT22;1338;48.176;11.792;2023-03-01T16:29:49;8.30;1.00
2657;DHT22;1338;48.176;11.792;2023-03-01T16:32:17;8.60;1.00
2657;DHT22;1338;48.176;11.792;2023-03-01T16:34:45;8.60;1.00
2657;DHT22;1338;48.176;11.792;2023-03-01T16:37:16;8.20;1.00
2657;DHT22;1338;48.176;11.792;2023-03-01T16:39:46;8.00;1.00
2657;DHT22;1338;48.176;11.792;2023-03-01T16:42:17;7.90;1.00
2657;DHT22;1338;48.176;11.792;2023-03-01T16:44:45;7.90;1.00
2657;DHT22;1338;48.176;11.792;2023-03-01T16:47:14;7.90;1.00
2657;DHT22;1338;48.176;11.792;2023-03-01T16:49:42;7.90;1.00
2657;DHT22;1338;48.176;11.792;2023-03-01T16:52:11;7.60;1.00
2657;DHT22;1338;48.176;11.792;2023-03-01T16:54:39;7.30;1.00
2657;DHT22;1338;48.176;11.792;2023-03-01T16:57:07;7.20;1.00
2657;DHT22;1338;48.176;11.792;2023-03-01T16:59:37;7.30;1.00